sensor_id;sensor_type;location;lat;lon;timestamp;temperature;humidity
74224;SHT31;62585;49.706;18.216;2022-11-15T00:01:34;3.72;87.45
74224;SHT31;62585;49.706;18.216;2022-11-15T00:03:59;3.78;86.44
74224;SHT31;62585;49.706;18.216;2022-11-15T00:06:25;3.85;87.05
74224;SHT31;62585;49.706;18.216;2022-11-15T00:08:51;3.91;86.70
74224;SHT31;62585;49.706;18.216;2022-11-15T00:11:16;3.93;87.50
74224;SHT31;62585;49.706;18.216;2022-11-15T00:13:42;3.96;88.95
74224;SHT31;62585;49.706;18.216;2022-11-15T00:16:08;3.97;88.57
74224;SHT31;62585;49.706;18.216;2022-11-15T00:18:34;3.99;89.32
74224;SHT31;62585;49.706;18.216;2022-11-15T00:21:05;4.03;89.25
74224;SHT31;62585;49.706;18.216;2022-11-15T00:23:33;4.10;88.88
74224;SHT31;62585;49.706;18.216;2022-11-15T00:25:59;4.06;89.30
74224;SHT31;62585;49.706;18.216;2022-11-15T00:28:25;4.08;88.51
74224;SHT31;62585;49.706;18.216;2022-11-15T00:30:51;4.13;88.63
74224;SHT31;62585;49.706;18.216;2022-11-15T00:33:17;4.04;88.83
74224;SHT31;62585;49.706;18.216;2022-11-15T00:35:43;3.93;88.82
74224;SHT31;62585;49.706;18.216;2022-11-15T00:38:08;3.91;88.75
74224;SHT31;62585;49.706;18.216;2022-11-15T00:40:34;3.83;88.51
74224;SHT31;62585;49.706;18.216;2022-11-15T00:43:00;3.72;88.50
74224;SHT31;62585;49.706;18.216;2022-11-15T00:45:26;3.59;88.54
74224;SHT31;62585;49.706;18.216;2022-11-15T00:47:52;3.55;88.91
74224;SHT31;62585;49.706;18.216;2022-11-15T00:50:18;3.59;88.63
74224;SHT31;62585;49.706;18.216;2022-11-15T00:52:44;3.62;89.02
74224;SHT31;62585;49.706;18.216;2022-11-15T00:55:18;3.66;89.01
74224;SHT31;62585;49.706;18.216;2022-11-15T00:57:44;3.69;89.24
74224;SHT31;62585;49.706;18.216;2022-11-15T01:00:11;3.79;89.21
74224;SHT31;62585;49.706;18.216;2022-11-15T01:02:37;3.78;88.46
74224;SHT31;62585;49.706;18.216;2022-11-15T01:05:03;3.76;87.82
74224;SHT31;62585;49.706;18.216;2022-11-15T01:07:28;3.79;87.48
74224;SHT31;62585;49.706;18.216;2022-11-15T01:09:54;3.83;87.13
74224;SHT31;62585;49.706;18.216;2022-11-15T01:12:20;3.73;87.81
74224;SHT31;62585;49.706;18.216;2022-11-15T01:14:46;3.72;87.60
74224;SHT31;62585;49.706;18.216;2022-11-15T01:17:11;3.59;87.51
74224;SHT31;62585;49.706;18.216;2022-11-15T01:19:37;3.69;88.74
74224;SHT31;62585;49.706;18.216;2022-11-15T01:22:03;3.70;88.73
74224;SHT31;62585;49.706;18.216;2022-11-15T01:24:28;3.61;86.49
74224;SHT31;62585;49.706;18.216;2022-11-15T01:26:54;3.54;86.82
74224;SHT31;62585;49.706;18.216;2022-11-15T01:29:20;3.35;86.42
74224;SHT31;62585;49.706;18.216;2022-11-15T01:31:46;3.38;87.89
74224;SHT31;62585;49.706;18.216;2022-11-15T01:34:11;3.42;87.71
74224;SHT31;62585;49.706;18.216;2022-11-15T01:36:37;3.48;88.24
74224;SHT31;62585;49.706;18.216;2022-11-15T01:39:03;3.55;89.03
74224;SHT31;62585;49.706;18.216;2022-11-15T01:41:31;3.66;89.60
74224;SHT31;62585;49.706;18.216;2022-11-15T01:52:24;3.76;87.14
74224;SHT31;62585;49.706;18.216;2022-11-15T01:54:55;3.79;87.89
74224;SHT31;62585;49.706;18.216;2022-11-15T01:57:22;3.79;87.13
74224;SHT31;62585;49.706;18.216;2022-11-15T01:59:48;3.63;87.13
74224;SHT31;62585;49.706;18.216;2022-11-15T02:02:13;3.56;86.21
74224;SHT31;62585;49.706;18.216;2022-11-15T02:04:44;3.58;86.54
74224;SHT31;62585;49.706;18.216;2022-11-15T02:07:13;3.54;86.27
74224;SHT31;62585;49.706;18.216;2022-11-15T02:09:40;3.27;87.28
74224;SHT31;62585;49.706;18.216;2022-11-15T02:12:07;3.25;86.88
74224;SHT31;62585;49.706;18.216;2022-11-15T02:14:35;3.11;86.20
74224;SHT31;62585;49.706;18.216;2022-11-15T02:17:22;3.10;86.62
74224;SHT31;62585;49.706;18.216;2022-11-15T02:29:21;2.21;86.08
74224;SHT31;62585;49.706;18.216;2022-11-15T02:32:06;2.17;85.40
74224;SHT31;62585;49.706;18.216;2022-11-15T02:34:43;2.01;85.39
74224;SHT31;62585;49.706;18.216;2022-11-15T02:42:55;2.03;87.33
74224;SHT31;62585;49.706;18.216;2022-11-15T02:45:46;2.06;86.92
74224;SHT31;62585;49.706;18.216;2022-11-15T02:48:15;2.14;87.92
74224;SHT31;62585;49.706;18.216;2022-11-15T02:50:41;2.20;88.77
74224;SHT31;62585;49.706;18.216;2022-11-15T02:53:08;2.24;88.26
74224;SHT31;62585;49.706;18.216;2022-11-15T02:55:40;2.32;88.85
74224;SHT31;62585;49.706;18.216;2022-11-15T03:01:01;2.21;87.37
74224;SHT31;62585;49.706;18.216;2022-11-15T03:11:33;2.17;88.06
74224;SHT31;62585;49.706;18.216;2022-11-15T03:14:29;2.14;89.25
74224;SHT31;62585;49.706;18.216;2022-11-15T03:17:00;2.22;90.73
74224;SHT31;62585;49.706;18.216;2022-11-15T03:22:04;2.45;90.73
74224;SHT31;62585;49.706;18.216;2022-11-15T03:24:33;2.49;90.00
74224;SHT31;62585;49.706;18.216;2022-11-15T03:27:02;2.44;89.96
74224;SHT31;62585;49.706;18.216;2022-11-15T03:29:35;2.42;90.26
74224;SHT31;62585;49.706;18.216;2022-11-15T03:32:09;2.48;90.23
74224;SHT31;62585;49.706;18.216;2022-11-15T03:34:44;2.48;90.97
74224;SHT31;62585;49.706;18.216;2022-11-15T03:37:12;2.60;91.29
74224;SHT31;62585;49.706;18.216;2022-11-15T03:39:38;2.75;91.61
74224;SHT31;62585;49.706;18.216;2022-11-15T03:47:45;3.01;91.34
74224;SHT31;62585;49.706;18.216;2022-11-15T03:50:16;3.10;91.04
74224;SHT31;62585;49.706;18.216;2022-11-15T03:52:44;3.17;90.52
74224;SHT31;62585;49.706;18.216;2022-11-15T03:55:13;3.18;90.43
74224;SHT31;62585;49.706;18.216;2022-11-15T03:57:40;3.27;90.93
74224;SHT31;62585;49.706;18.216;2022-11-15T04:00:07;3.32;91.16
74224;SHT31;62585;49.706;18.216;2022-11-15T04:02:32;3.38;90.92
74224;SHT31;62585;49.706;18.216;2022-11-15T04:04:58;3.35;90.62
74224;SHT31;62585;49.706;18.216;2022-11-15T04:07:24;3.41;91.10
74224;SHT31;62585;49.706;18.216;2022-11-15T04:09:50;3.45;90.96
74224;SHT31;62585;49.706;18.216;2022-11-15T04:12:49;3.46;90.80
74224;SHT31;62585;49.706;18.216;2022-11-15T04:15:17;3.49;90.74
74224;SHT31;62585;49.706;18.216;2022-11-15T04:17:53;3.48;91.50
74224;SHT31;62585;49.706;18.216;2022-11-15T04:20:22;3.51;91.45
74224;SHT31;62585;49.706;18.216;2022-11-15T04:23:20;3.55;91.46
74224;SHT31;62585;49.706;18.216;2022-11-15T04:26:08;3.65;91.65
74224;SHT31;62585;49.706;18.216;2022-11-15T04:28:35;3.66;91.00
74224;SHT31;62585;49.706;18.216;2022-11-15T04:31:21;3.69;90.48
74224;SHT31;62585;49.706;18.216;2022-11-15T04:33:47;3.70;90.30
74224;SHT31;62585;49.706;18.216;2022-11-15T04:36:12;3.62;89.28
74224;SHT31;62585;49.706;18.216;2022-11-15T04:38:57;3.41;86.44
74224;SHT31;62585;49.706;18.216;2022-11-15T04:41:22;3.20;86.26
74224;SHT31;62585;49.706;18.216;2022-11-15T04:43:48;3.11;86.74
74224;SHT31;62585;49.706;18.216;2022-11-15T04:46:14;3.04;87.53
74224;SHT31;62585;49.706;18.216;2022-11-15T04:48:39;3.07;88.45
74224;SHT31;62585;49.706;18.216;2022-11-15T04:51:05;3.18;89.85
74224;SHT31;62585;49.706;18.216;2022-11-15T04:53:31;3.30;89.98
74224;SHT31;62585;49.706;18.216;2022-11-15T04:55:57;3.41;90.26
74224;SHT31;62585;49.706;18.216;2022-11-15T04:58:22;3.54;90.74
74224;SHT31;62585;49.706;18.216;2022-11-15T05:00:48;3.62;90.12
74224;SHT31;62585;49.706;18.216;2022-11-15T05:03:14;3.59;89.27
74224;SHT31;62585;49.706;18.216;2022-11-15T05:05:59;3.46;88.71
74224;SHT31;62585;49.706;18.216;2022-11-15T05:08:25;3.41;88.54
74224;SHT31;62585;49.706;18.216;2022-11-15T05:10:51;3.43;88.67
74224;SHT31;62585;49.706;18.216;2022-11-15T05:13:17;3.51;89.18
74224;SHT31;62585;49.706;18.216;2022-11-15T05:15:43;3.54;89.30
74224;SHT31;62585;49.706;18.216;2022-11-15T05:18:08;3.49;88.77
74224;SHT31;62585;49.706;18.216;2022-11-15T05:20:34;3.45;88.38
74224;SHT31;62585;49.706;18.216;2022-11-15T05:23:00;3.34;87.50
74224;SHT31;62585;49.706;18.216;2022-11-15T05:25:26;3.22;86.86
74224;SHT31;62585;49.706;18.216;2022-11-15T05:27:52;3.08;86.91
74224;SHT31;62585;49.706;18.216;2022-11-15T05:30:18;2.94;87.49
74224;SHT31;62585;49.706;18.216;2022-11-15T05:32:44;2.92;87.35
74224;SHT31;62585;49.706;18.216;2022-11-15T05:35:15;2.96;87.31
74224;SHT31;62585;49.706;18.216;2022-11-15T05:37:44;3.05;87.82
74224;SHT31;62585;49.706;18.216;2022-11-15T05:40:10;3.08;87.87
74224;SHT31;62585;49.706;18.216;2022-11-15T05:42:35;3.11;87.05
74224;SHT31;62585;49.706;18.216;2022-11-15T05:45:02;3.22;89.24
74224;SHT31;62585;49.706;18.216;2022-11-15T05:47:30;3.17;88.27
74224;SHT31;62585;49.706;18.216;2022-11-15T05:49:57;3.17;89.06
74224;SHT31;62585;49.706;18.216;2022-11-15T05:52:25;3.00;86.54
74224;SHT31;62585;49.706;18.216;2022-11-15T05:54:54;2.99;87.22
74224;SHT31;62585;49.706;18.216;2022-11-15T05:57:21;2.99;88.41
74224;SHT31;62585;49.706;18.216;2022-11-15T05:59:47;2.99;89.25
74224;SHT31;62585;49.706;18.216;2022-11-15T06:02:12;2.96;87.91
74224;SHT31;62585;49.706;18.216;2022-11-15T06:04:38;2.90;86.59
74224;SHT31;62585;49.706;18.216;2022-11-15T06:07:04;2.83;88.17
74224;SHT31;62585;49.706;18.216;2022-11-15T06:09:30;2.82;88.13
74224;SHT31;62585;49.706;18.216;2022-11-15T06:11:55;2.75;88.56
74224;SHT31;62585;49.706;18.216;2022-11-15T06:14:21;2.82;89.82
74224;SHT31;62585;49.706;18.216;2022-11-15T06:16:48;3.00;91.99
74224;SHT31;62585;49.706;18.216;2022-11-15T06:19:14;3.24;92.10
74224;SHT31;62585;49.706;18.216;2022-11-15T06:21:39;3.39;91.09
74224;SHT31;62585;49.706;18.216;2022-11-15T06:24:06;3.52;89.61
74224;SHT31;62585;49.706;18.216;2022-11-15T06:26:31;3.63;89.97
74224;SHT31;62585;49.706;18.216;2022-11-15T06:28:57;3.56;87.44
74224;SHT31;62585;49.706;18.216;2022-11-15T06:31:23;3.38;87.56
74224;SHT31;62585;49.706;18.216;2022-11-15T06:33:49;3.32;88.83
74224;SHT31;62585;49.706;18.216;2022-11-15T06:36:15;3.36;88.06
74224;SHT31;62585;49.706;18.216;2022-11-15T06:38:43;3.39;87.92
74224;SHT31;62585;49.706;18.216;2022-11-15T06:41:10;3.41;87.01
74224;SHT31;62585;49.706;18.216;2022-11-15T06:43:37;3.61;89.58
74224;SHT31;62585;49.706;18.216;2022-11-15T06:46:04;3.55;87.73
74224;SHT31;62585;49.706;18.216;2022-11-15T06:48:31;3.59;88.47
74224;SHT31;62585;49.706;18.216;2022-11-15T06:50:59;3.72;88.62
74224;SHT31;62585;49.706;18.216;2022-11-15T06:53:26;3.94;89.61
74224;SHT31;62585;49.706;18.216;2022-11-15T06:55:52;4.08;88.89
74224;SHT31;62585;49.706;18.216;2022-11-15T06:58:18;4.25;89.38
74224;SHT31;62585;49.706;18.216;2022-11-15T07:00:44;4.45;89.58
74224;SHT31;62585;49.706;18.216;2022-11-15T07:03:10;4.72;89.32
74224;SHT31;62585;49.706;18.216;2022-11-15T07:05:35;4.96;88.83
74224;SHT31;62585;49.706;18.216;2022-11-15T07:08:02;5.04;87.44
74224;SHT31;62585;49.706;18.216;2022-11-15T07:10:28;5.00;86.90
74224;SHT31;62585;49.706;18.216;2022-11-15T07:12:55;5.13;86.86
74224;SHT31;62585;49.706;18.216;2022-11-15T07:15:23;5.28;86.74
74224;SHT31;62585;49.706;18.216;2022-11-15T07:17:49;5.44;86.08
74224;SHT31;62585;49.706;18.216;2022-11-15T07:20:15;5.66;85.99
74224;SHT31;62585;49.706;18.216;2022-11-15T07:22:42;5.96;85.08
74224;SHT31;62585;49.706;18.216;2022-11-15T07:25:08;6.10;83.50
74224;SHT31;62585;49.706;18.216;2022-11-15T07:27:34;6.09;81.93
74224;SHT31;62585;49.706;18.216;2022-11-15T07:30:01;6.13;81.60
74224;SHT31;62585;49.706;18.216;2022-11-15T07:32:27;6.20;82.32
74224;SHT31;62585;49.706;18.216;2022-11-15T07:34:52;6.17;82.94
74224;SHT31;62585;49.706;18.216;2022-11-15T07:37:18;6.59;83.15
74224;SHT31;62585;49.706;18.216;2022-11-15T07:39:44;7.02;82.62
74224;SHT31;62585;49.706;18.216;2022-11-15T07:42:10;7.67;80.62
74224;SHT31;62585;49.706;18.216;2022-11-15T07:44:54;8.32;78.56
74224;SHT31;62585;49.706;18.216;2022-11-15T07:47:20;8.92;77.18
74224;SHT31;62585;49.706;18.216;2022-11-15T07:49:46;9.27;75.84
74224;SHT31;62585;49.706;18.216;2022-11-15T07:52:13;9.64;74.81
74224;SHT31;62585;49.706;18.216;2022-11-15T07:54:39;9.97;73.14
74224;SHT31;62585;49.706;18.216;2022-11-15T07:57:05;10.29;71.51
74224;SHT31;62585;49.706;18.216;2022-11-15T07:59:32;10.45;71.49
74224;SHT31;62585;49.706;18.216;2022-11-15T08:01:58;10.77;69.71
74224;SHT31;62585;49.706;18.216;2022-11-15T08:04:24;11.00;70.54
74224;SHT31;62585;49.706;18.216;2022-11-15T08:06:50;11.31;68.15
74224;SHT31;62585;49.706;18.216;2022-11-15T08:09:15;11.48;66.98
74224;SHT31;62585;49.706;18.216;2022-11-15T08:11:41;11.70;66.60
74224;SHT31;62585;49.706;18.216;2022-11-15T08:14:07;11.90;66.32
74224;SHT31;62585;49.706;18.216;2022-11-15T08:16:33;11.75;65.58
74224;SHT31;62585;49.706;18.216;2022-11-15T08:18:58;11.79;65.66
74224;SHT31;62585;49.706;18.216;2022-11-15T08:21:24;11.79;66.45
74224;SHT31;62585;49.706;18.216;2022-11-15T08:23:50;11.87;66.40
74224;SHT31;62585;49.706;18.216;2022-11-15T08:26:16;11.87;65.88
74224;SHT31;62585;49.706;18.216;2022-11-15T08:28:41;12.13;65.97
74224;SHT31;62585;49.706;18.216;2022-11-15T08:31:14;11.79;67.83
74224;SHT31;62585;49.706;18.216;2022-11-15T08:33:40;11.48;67.36
74224;SHT31;62585;49.706;18.216;2022-11-15T08:36:06;11.77;67.11
74224;SHT31;62585;49.706;18.216;2022-11-15T08:38:31;12.04;65.96
74224;SHT31;62585;49.706;18.216;2022-11-15T08:41:04;12.11;66.93
74224;SHT31;62585;49.706;18.216;2022-11-15T08:43:31;12.20;65.93
74224;SHT31;62585;49.706;18.216;2022-11-15T08:45:58;12.52;64.46
74224;SHT31;62585;49.706;18.216;2022-11-15T08:48:24;12.83;63.85
74224;SHT31;62585;49.706;18.216;2022-11-15T08:50:56;12.90;62.53
74224;SHT31;62585;49.706;18.216;2022-11-15T08:53:22;12.89;63.30
74224;SHT31;62585;49.706;18.216;2022-11-15T08:55:48;13.04;62.80
74224;SHT31;62585;49.706;18.216;2022-11-15T08:58:13;13.07;63.32
74224;SHT31;62585;49.706;18.216;2022-11-15T09:00:39;13.04;62.96
74224;SHT31;62585;49.706;18.216;2022-11-15T09:03:06;13.17;62.52
74224;SHT31;62585;49.706;18.216;2022-11-15T09:05:32;12.49;63.92
74224;SHT31;62585;49.706;18.216;2022-11-15T09:07:58;12.23;65.07
74224;SHT31;62585;49.706;18.216;2022-11-15T09:10:23;12.03;66.13
74224;SHT31;62585;49.706;18.216;2022-11-15T09:12:50;12.04;67.21
74224;SHT31;62585;49.706;18.216;2022-11-15T09:15:16;12.13;67.95
74224;SHT31;62585;49.706;18.216;2022-11-15T09:17:42;12.23;67.11
74224;SHT31;62585;49.706;18.216;2022-11-15T09:20:09;11.96;67.28
74224;SHT31;62585;49.706;18.216;2022-11-15T09:22:35;12.11;66.98
74224;SHT31;62585;49.706;18.216;2022-11-15T09:25:03;12.14;66.49
74224;SHT31;62585;49.706;18.216;2022-11-15T09:27:29;12.53;65.48
74224;SHT31;62585;49.706;18.216;2022-11-15T09:29:55;12.83;64.81
74224;SHT31;62585;49.706;18.216;2022-11-15T09:32:21;12.38;65.44
74224;SHT31;62585;49.706;18.216;2022-11-15T09:34:51;12.32;65.64
74224;SHT31;62585;49.706;18.216;2022-11-15T09:37:17;12.04;66.25
74224;SHT31;62585;49.706;18.216;2022-11-15T09:39:46;12.17;66.56
74224;SHT31;62585;49.706;18.216;2022-11-15T09:45:17;12.92;64.57
74224;SHT31;62585;49.706;18.216;2022-11-15T09:50:39;13.72;61.48
74224;SHT31;62585;49.706;18.216;2022-11-15T09:53:16;13.81;61.08
74224;SHT31;62585;49.706;18.216;2022-11-15T09:55:59;14.17;61.00
74224;SHT31;62585;49.706;18.216;2022-11-15T09:58:36;14.17;61.84
74224;SHT31;62585;49.706;18.216;2022-11-15T10:01:15;14.38;59.26
74224;SHT31;62585;49.706;18.216;2022-11-15T10:03:42;13.75;60.90
74224;SHT31;62585;49.706;18.216;2022-11-15T10:06:21;14.12;61.61
74224;SHT31;62585;49.706;18.216;2022-11-15T10:11:20;14.20;60.63
74224;SHT31;62585;49.706;18.216;2022-11-15T10:13:47;14.14;59.70
74224;SHT31;62585;49.706;18.216;2022-11-15T10:16:28;13.34;62.73
74224;SHT31;62585;49.706;18.216;2022-11-15T10:19:20;13.18;63.19
74224;SHT31;62585;49.706;18.216;2022-11-15T10:24:27;13.55;63.21
74224;SHT31;62585;49.706;18.216;2022-11-15T10:26:55;13.26;63.72
74224;SHT31;62585;49.706;18.216;2022-11-15T10:29:21;12.92;64.72
74224;SHT31;62585;49.706;18.216;2022-11-15T10:31:47;12.93;65.27
74224;SHT31;62585;49.706;18.216;2022-11-15T10:36:58;12.66;65.66
74224;SHT31;62585;49.706;18.216;2022-11-15T10:39:24;12.79;66.27
74224;SHT31;62585;49.706;18.216;2022-11-15T10:41:51;12.95;66.38
74224;SHT31;62585;49.706;18.216;2022-11-15T10:46:45;13.02;65.40
74224;SHT31;62585;49.706;18.216;2022-11-15T10:51:45;12.65;66.29
74224;SHT31;62585;49.706;18.216;2022-11-15T10:54:12;12.62;66.74
74224;SHT31;62585;49.706;18.216;2022-11-15T10:56:39;12.83;66.46
74224;SHT31;62585;49.706;18.216;2022-11-15T10:59:14;12.99;66.16
74224;SHT31;62585;49.706;18.216;2022-11-15T11:01:48;13.24;65.80
74224;SHT31;62585;49.706;18.216;2022-11-15T11:04:14;13.43;65.17
74224;SHT31;62585;49.706;18.216;2022-11-15T11:06:57;13.65;65.38
74224;SHT31;62585;49.706;18.216;2022-11-15T11:09:37;13.93;64.85
74224;SHT31;62585;49.706;18.216;2022-11-15T11:12:05;14.08;64.40
74224;SHT31;62585;49.706;18.216;2022-11-15T11:14:37;14.06;63.26
74224;SHT31;62585;49.706;18.216;2022-11-15T11:22:55;13.92;63.69
74224;SHT31;62585;49.706;18.216;2022-11-15T11:25:33;13.72;65.58
74224;SHT31;62585;49.706;18.216;2022-11-15T11:37:09;13.51;65.20
74224;SHT31;62585;49.706;18.216;2022-11-15T11:51:08;13.34;66.19
74224;SHT31;62585;49.706;18.216;2022-11-15T11:53:56;13.06;66.80
74224;SHT31;62585;49.706;18.216;2022-11-15T11:56:27;13.00;67.45
74224;SHT31;62585;49.706;18.216;2022-11-15T11:58:57;13.06;67.03
74224;SHT31;62585;49.706;18.216;2022-11-15T12:01:30;13.00;67.32
74224;SHT31;62585;49.706;18.216;2022-11-15T12:06:59;13.09;67.23
74224;SHT31;62585;49.706;18.216;2022-11-15T12:09:32;12.97;67.18
74224;SHT31;62585;49.706;18.216;2022-11-15T12:12:02;12.96;67.16
74224;SHT31;62585;49.706;18.216;2022-11-15T12:14:35;13.06;67.20
74224;SHT31;62585;49.706;18.216;2022-11-15T12:17:04;13.24;66.61
74224;SHT31;62585;49.706;18.216;2022-11-15T12:19:30;13.43;67.05
74224;SHT31;62585;49.706;18.216;2022-11-15T12:22:03;14.30;63.40
74224;SHT31;62585;49.706;18.216;2022-11-15T12:24:38;14.02;63.74
74224;SHT31;62585;49.706;18.216;2022-11-15T12:27:41;14.27;63.08
74224;SHT31;62585;49.706;18.216;2022-11-15T12:30:12;14.54;62.16
74224;SHT31;62585;49.706;18.216;2022-11-15T12:32:47;14.10;62.86
74224;SHT31;62585;49.706;18.216;2022-11-15T12:35:41;14.16;63.48
74224;SHT31;62585;49.706;18.216;2022-11-15T12:38:12;14.03;63.07
74224;SHT31;62585;49.706;18.216;2022-11-15T12:41:13;14.20;62.91
74224;SHT31;62585;49.706;18.216;2022-11-15T12:43:44;14.22;63.44
74224;SHT31;62585;49.706;18.216;2022-11-15T12:48:55;13.47;65.71
74224;SHT31;62585;49.706;18.216;2022-11-15T13:00:00;12.20;69.08
74224;SHT31;62585;49.706;18.216;2022-11-15T13:17:43;11.31;71.92
74224;SHT31;62585;49.706;18.216;2022-11-15T13:22:48;11.11;72.85
74224;SHT31;62585;49.706;18.216;2022-11-15T13:28:09;11.03;73.26
74224;SHT31;62585;49.706;18.216;2022-11-15T13:30:37;11.06;73.46
74224;SHT31;62585;49.706;18.216;2022-11-15T13:33:13;11.22;73.02
74224;SHT31;62585;49.706;18.216;2022-11-15T13:35:41;11.24;72.76
74224;SHT31;62585;49.706;18.216;2022-11-15T13:38:38;11.28;72.80
74224;SHT31;62585;49.706;18.216;2022-11-15T13:41:24;11.31;72.98
74224;SHT31;62585;49.706;18.216;2022-11-15T13:43:51;11.36;73.24
74224;SHT31;62585;49.706;18.216;2022-11-15T13:46:23;11.43;73.54
74224;SHT31;62585;49.706;18.216;2022-11-15T13:49:12;11.49;73.47
74224;SHT31;62585;49.706;18.216;2022-11-15T13:51:45;11.55;71.90
74224;SHT31;62585;49.706;18.216;2022-11-15T13:57:00;11.56;73.21
74224;SHT31;62585;49.706;18.216;2022-11-15T13:59:35;11.42;72.85
74224;SHT31;62585;49.706;18.216;2022-11-15T14:02:13;11.28;71.35
74224;SHT31;62585;49.706;18.216;2022-11-15T14:04:49;10.84;72.96
74224;SHT31;62585;49.706;18.216;2022-11-15T14:07:21;10.70;73.42
74224;SHT31;62585;49.706;18.216;2022-11-15T14:09:47;10.57;73.55
74224;SHT31;62585;49.706;18.216;2022-11-15T14:12:34;10.55;73.91
74224;SHT31;62585;49.706;18.216;2022-11-15T14:15:38;10.56;73.90
74224;SHT31;62585;49.706;18.216;2022-11-15T14:18:04;10.45;74.39
74224;SHT31;62585;49.706;18.216;2022-11-15T14:20:38;10.46;73.93
74224;SHT31;62585;49.706;18.216;2022-11-15T14:23:24;10.33;74.38
74224;SHT31;62585;49.706;18.216;2022-11-15T14:25:55;10.42;73.98
74224;SHT31;62585;49.706;18.216;2022-11-15T14:30:52;10.59;75.01
74224;SHT31;62585;49.706;18.216;2022-11-15T14:33:34;10.61;75.43
74224;SHT31;62585;49.706;18.216;2022-11-15T14:36:12;10.49;74.74
74224;SHT31;62585;49.706;18.216;2022-11-15T14:38:38;10.59;74.53
74224;SHT31;62585;49.706;18.216;2022-11-15T14:41:04;10.60;75.26
74224;SHT31;62585;49.706;18.216;2022-11-15T14:43:31;10.63;75.29
74224;SHT31;62585;49.706;18.216;2022-11-15T14:45:57;10.59;75.18
74224;SHT31;62585;49.706;18.216;2022-11-15T14:48:23;10.56;75.05
74224;SHT31;62585;49.706;18.216;2022-11-15T14:50:48;10.45;73.75
74224;SHT31;62585;49.706;18.216;2022-11-15T14:53:16;10.46;73.74
74224;SHT31;62585;49.706;18.216;2022-11-15T14:55:43;10.22;74.12
74224;SHT31;62585;49.706;18.216;2022-11-15T14:58:09;10.23;73.98
74224;SHT31;62585;49.706;18.216;2022-11-15T15:00:39;10.19;74.10
74224;SHT31;62585;49.706;18.216;2022-11-15T15:03:06;10.26;73.77
74224;SHT31;62585;49.706;18.216;2022-11-15T15:05:37;10.38;73.75
74224;SHT31;62585;49.706;18.216;2022-11-15T15:08:03;10.45;72.90
74224;SHT31;62585;49.706;18.216;2022-11-15T15:10:35;10.42;73.27
74224;SHT31;62585;49.706;18.216;2022-11-15T15:13:02;10.45;73.12
74224;SHT31;62585;49.706;18.216;2022-11-15T15:15:35;10.42;73.47
74224;SHT31;62585;49.706;18.216;2022-11-15T15:18:01;10.42;73.60
74224;SHT31;62585;49.706;18.216;2022-11-15T15:20:28;10.42;73.38
74224;SHT31;62585;49.706;18.216;2022-11-15T15:22:54;10.45;73.61
74224;SHT31;62585;49.706;18.216;2022-11-15T15:25:28;10.43;73.62
74224;SHT31;62585;49.706;18.216;2022-11-15T15:27:54;10.46;73.53
74224;SHT31;62585;49.706;18.216;2022-11-15T15:30:25;10.45;73.85
74224;SHT31;62585;49.706;18.216;2022-11-15T15:32:51;10.50;73.89
74224;SHT31;62585;49.706;18.216;2022-11-15T15:35:17;10.50;73.45
74224;SHT31;62585;49.706;18.216;2022-11-15T15:37:45;10.48;73.80
74224;SHT31;62585;49.706;18.216;2022-11-15T15:40:18;10.43;74.50
74224;SHT31;62585;49.706;18.216;2022-11-15T15:42:46;10.42;74.11
74224;SHT31;62585;49.706;18.216;2022-11-15T15:45:13;10.45;74.14
74224;SHT31;62585;49.706;18.216;2022-11-15T15:47:41;10.42;73.88
74224;SHT31;62585;49.706;18.216;2022-11-15T15:52:56;10.39;73.88
74224;SHT31;62585;49.706;18.216;2022-11-15T15:55:22;10.38;73.71
74224;SHT31;62585;49.706;18.216;2022-11-15T15:57:49;10.35;73.89
74224;SHT31;62585;49.706;18.216;2022-11-15T16:00:15;10.35;74.11
74224;SHT31;62585;49.706;18.216;2022-11-15T16:02:42;10.36;73.77
74224;SHT31;62585;49.706;18.216;2022-11-15T16:05:09;10.35;74.02
74224;SHT31;62585;49.706;18.216;2022-11-15T16:07:35;10.39;73.54
74224;SHT31;62585;49.706;18.216;2022-11-15T16:10:04;10.43;73.16
74224;SHT31;62585;49.706;18.216;2022-11-15T16:12:38;10.36;73.47
74224;SHT31;62585;49.706;18.216;2022-11-15T16:15:04;10.25;73.58
74224;SHT31;62585;49.706;18.216;2022-11-15T16:17:33;10.28;73.45
74224;SHT31;62585;49.706;18.216;2022-11-15T16:20:00;10.41;73.43
74224;SHT31;62585;49.706;18.216;2022-11-15T16:22:26;10.33;73.60
74224;SHT31;62585;49.706;18.216;2022-11-15T16:24:54;10.31;73.65
74224;SHT31;62585;49.706;18.216;2022-11-15T16:27:21;10.32;73.87
74224;SHT31;62585;49.706;18.216;2022-11-15T16:29:47;10.33;74.01
74224;SHT31;62585;49.706;18.216;2022-11-15T16:32:14;10.36;74.49
74224;SHT31;62585;49.706;18.216;2022-11-15T16:34:40;10.39;74.37
74224;SHT31;62585;49.706;18.216;2022-11-15T16:37:23;10.33;74.45
74224;SHT31;62585;49.706;18.216;2022-11-15T16:39:50;10.35;74.64
74224;SHT31;62585;49.706;18.216;2022-11-15T16:42:16;10.33;74.62
74224;SHT31;62585;49.706;18.216;2022-11-15T16:44:42;10.31;74.83
74224;SHT31;62585;49.706;18.216;2022-11-15T16:47:16;10.28;74.83
74224;SHT31;62585;49.706;18.216;2022-11-15T16:49:42;10.26;75.12
74224;SHT31;62585;49.706;18.216;2022-11-15T16:52:09;10.19;75.48
74224;SHT31;62585;49.706;18.216;2022-11-15T16:54:35;10.19;75.74
74224;SHT31;62585;49.706;18.216;2022-11-15T16:57:00;10.14;75.72
74224;SHT31;62585;49.706;18.216;2022-11-15T16:59:26;10.09;76.00
74224;SHT31;62585;49.706;18.216;2022-11-15T17:01:52;10.06;76.14
74224;SHT31;62585;49.706;18.216;2022-11-15T17:04:18;10.09;76.13
74224;SHT31;62585;49.706;18.216;2022-11-15T17:06:47;10.05;76.21
74224;SHT31;62585;49.706;18.216;2022-11-15T17:09:16;9.99;75.85
74224;SHT31;62585;49.706;18.216;2022-11-15T17:11:43;9.98;76.33
74224;SHT31;62585;49.706;18.216;2022-11-15T17:14:10;9.95;76.35
74224;SHT31;62585;49.706;18.216;2022-11-15T17:16:36;9.94;76.59
74224;SHT31;62585;49.706;18.216;2022-11-15T17:19:11;9.95;76.74
74224;SHT31;62585;49.706;18.216;2022-11-15T17:21:38;9.95;77.12
74224;SHT31;62585;49.706;18.216;2022-11-15T17:24:03;9.99;77.30
74224;SHT31;62585;49.706;18.216;2022-11-15T17:26:29;10.06;77.74
74224;SHT31;62585;49.706;18.216;2022-11-15T17:28:55;10.05;78.44
74224;SHT31;62585;49.706;18.216;2022-11-15T17:31:22;9.99;77.86
74224;SHT31;62585;49.706;18.216;2022-11-15T17:33:47;9.99;78.63
74224;SHT31;62585;49.706;18.216;2022-11-15T17:36:13;9.97;77.98
74224;SHT31;62585;49.706;18.216;2022-11-15T17:38:42;9.97;78.46
74224;SHT31;62585;49.706;18.216;2022-11-15T17:41:11;9.94;78.42
74224;SHT31;62585;49.706;18.216;2022-11-15T17:43:37;9.93;79.06
74224;SHT31;62585;49.706;18.216;2022-11-15T17:46:07;9.90;79.82